Time;durP1;ratioP1;P1;durP2;ratioP2;P2;SDS_P1;SDS_P2;PMS_P1;PMS_P2;Temp;Humidity;BMP_temperature;BMP_pressure;BME280_temperature;BME280_humidity;BME280_pressure;Samples;Min_cycle;Max_cycle;Signal;HPM_P1;HPM_P2
2023/10/01 00:01:35;;;;;;;11.18;3.42;;;;;;;24.08;48.42;102419.03;5009657;28;20580;-71
2023/10/01 00:04:06;;;;;;;12.88;4.88;;;;;;;24.49;46.88;102414.56;5009396;28;20037;-71
2023/10/01 00:06:34;;;;;;;10.13;3.70;;;;;;;24.07;47.90;102412.84;5029323;28;20056;-71
2023/10/01 00:09:00;;;;;;;10.52;3.80;;;;;;;24.12;48.00;102410.81;5031905;28;20322;-72
2023/10/01 00:11:26;;;;;;;15.55;4.40;;;;;;;24.57;47.21;102403.56;5030706;28;20432;-71
2023/10/01 00:13:52;;;;;;;6.63;3.15;;;;;;;24.76;46.67;102395.59;5013585;28;20067;-71
2023/10/01 00:16:17;;;;;;;6.15;3.42;;;;;;;24.24;47.65;102401.44;5032123;28;20540;-71
2023/10/01 00:18:42;;;;;;;15.35;3.63;;;;;;;24.22;47.81;102396.16;5013489;28;20028;-71
2023/10/01 00:21:08;;;;;;;11.45;2.83;;;;;;;23.88;48.05;102408.25;5032267;28;20380;-71
2023/10/01 00:23:33;;;;;;;8.93;3.42;;;;;;;24.38;46.89;102400.81;5014335;28;20034;-71
2023/10/01 00:25:59;;;;;;;7.50;2.53;;;;;;;24.99;45.50;102401.69;5013156;28;20111;-71
2023/10/01 00:28:24;;;;;;;8.95;2.90;;;;;;;24.20;47.09;102406.03;5031487;28;20021;-71
2023/10/01 00:30:50;;;;;;;5.68;2.90;;;;;;;23.31;48.03;102407.81;5030739;28;20053;-71
2023/10/01 00:33:15;;;;;;;4.68;2.20;;;;;;;23.20;48.36;102408.28;5014035;28;20040;-71
2023/10/01 00:35:41;;;;;;;7.93;2.28;;;;;;;24.04;45.88;102404.94;5027102;28;20022;-71
2023/10/01 00:38:07;;;;;;;5.10;2.33;;;;;;;23.65;45.93;102414.50;5002730;28;20044;-71
2023/10/01 00:40:33;;;;;;;7.45;2.20;;;;;;;23.83;45.92;102404.88;5014584;28;20585;-71
2023/10/01 00:42:59;;;;;;;6.95;2.65;;;;;;;24.77;44.23;102397.34;5029931;28;20116;-71
2023/10/01 00:45:24;;;;;;;9.90;2.60;;;;;;;23.94;44.89;102407.13;5030008;28;20033;-72
2023/10/01 00:47:51;;;;;;;11.43;2.20;;;;;;;23.53;45.78;102399.88;5032264;28;20025;-72
2023/10/01 00:50:23;;;;;;;9.95;2.42;;;;;;;24.14;43.83;102392.94;5030926;28;20033;-71
2023/10/01 00:52:49;;;;;;;11.90;2.50;;;;;;;23.83;45.17;102396.84;5030081;28;20022;-71
2023/10/01 00:55:16;;;;;;;4.40;2.47;;;;;;;23.84;44.66;102395.94;5013766;28;20025;-71
2023/10/01 00:57:42;;;;;;;8.27;2.13;;;;;;;23.66;44.96;102386.03;5013735;28;20132;-71
2023/10/01 01:00:09;;;;;;;7.72;1.90;;;;;;;23.80;45.52;102394.31;5030670;28;20108;-71
2023/10/01 01:02:38;;;;;;;5.85;2.17;;;;;;;24.03;45.21;102389.88;5013387;28;20029;-71
2023/10/01 01:05:20;;;;;;;5.70;2.75;;;;;;;24.52;43.98;102377.03;5028482;28;20037;-71
2023/10/01 01:07:47;;;;;;;9.02;2.70;;;;;;;23.20;46.91;102389.59;5031523;28;20442;-71
2023/10/01 01:10:18;;;;;;;9.27;2.70;;;;;;;24.35;44.34;102379.59;5030831;28;20445;-71
2023/10/01 01:12:54;;;;;;;9.43;2.10;;;;;;;23.07;47.23;102385.63;5029787;28;20064;-71
2023/10/01 01:15:21;;;;;;;8.48;2.47;;;;;;;23.29;46.62;102376.84;5025192;28;20045;-71
2023/10/01 01:17:48;;;;;;;6.45;2.08;;;;;;;23.53;46.00;102369.63;5012073;28;20129;-71
2023/10/01 01:20:13;;;;;;;8.43;1.90;;;;;;;22.85;47.13;102373.09;5010801;28;20032;-71
2023/10/01 01:22:47;;;;;;;6.32;2.05;;;;;;;22.97;46.75;102373.56;5025762;28;20464;-71
2023/10/01 01:25:20;;;;;;;5.90;1.98;;;;;;;23.26;46.55;102367.16;4999641;28;20046;-72
2023/10/01 01:27:48;;;;;;;8.70;2.72;;;;;;;23.40;46.02;102361.25;5029362;28;20061;-71
2023/10/01 01:30:26;;;;;;;4.13;1.88;;;;;;;23.31;45.70;102365.16;5029831;28;20470;-71
2023/10/01 01:32:53;;;;;;;7.13;2.03;;;;;;;22.79;47.06;102361.81;5029361;28;20496;-72
2023/10/01 01:35:27;;;;;;;8.15;2.72;;;;;;;22.84;46.96;102362.50;5024588;28;20036;-71
2023/10/01 01:37:55;;;;;;;10.48;2.42;;;;;;;23.20;46.48;102357.59;5012147;28;20033;-71
2023/10/01 01:40:36;;;;;;;7.00;1.65;;;;;;;23.23;46.57;102366.41;4993845;28;20049;-71
2023/10/01 01:43:15;;;;;;;8.05;2.55;;;;;;;22.97;46.96;102355.78;5024846;28;20044;-71
2023/10/01 01:45:44;;;;;;;5.45;2.10;;;;;;;23.55;46.15;102357.97;5012260;28;20029;-71
2023/10/01 01:48:25;;;;;;;8.60;2.13;;;;;;;23.46;45.88;102353.00;5012345;28;20079;-71
2023/10/01 01:50:54;;;;;;;8.02;2.47;;;;;;;23.98;44.71;102349.13;5029535;28;20025;-72
2023/10/01 01:53:20;;;;;;;7.32;2.92;;;;;;;23.11;46.35;102349.91;5030002;28;20028;-71
2023/10/01 01:55:47;;;;;;;7.03;2.53;;;;;;;23.32;46.56;102344.69;5029464;28;20504;-71
2023/10/01 01:58:15;;;;;;;7.55;2.35;;;;;;;23.91;44.96;102337.84;5029409;28;20036;-72
2023/10/01 02:01:42;;;;;;;7.43;2.40;;;;;;;24.22;44.57;102342.72;5013186;28;20025;-71
2023/10/01 02:03:38;;;;;;;7.30;2.80;;;;;;;24.19;45.09;102341.97;5019567;28;20057;-71
2023/10/01 02:06:08;;;;;;;9.65;2.97;;;;;;;23.94;45.50;102347.53;5012719;28;20120;-71
2023/10/01 02:08:35;;;;;;;8.25;2.65;;;;;;;24.05;45.63;102339.91;5029930;28;20432;-71
2023/10/01 02:11:09;;;;;;;16.02;2.58;;;;;;;24.55;44.60;102344.81;5029750;28;20037;-71
2023/10/01 02:13:40;;;;;;;7.20;2.30;;;;;;;23.60;45.61;102348.91;5012903;28;20025;-71
2023/10/01 02:16:18;;;;;;;9.70;2.63;;;;;;;23.06;47.58;102349.22;5012588;28;20033;-71
2023/10/01 02:19:29;;;;;;;8.55;3.25;;;;;;;23.41;46.70;102349.66;5030807;28;20029;-71
2023/10/01 02:21:43;;;;;;;9.90;2.50;;;;;;;23.25;46.65;102345.88;5021825;28;20045;-72
2023/10/01 02:24:13;;;;;;;6.47;2.17;;;;;;;23.31;47.35;102342.94;5006858;28;20050;-71
2023/10/01 02:26:39;;;;;;;8.63;2.45;;;;;;;23.94;45.69;102347.53;5009711;28;20034;-71
2023/10/01 02:29:05;;;;;;;9.75;2.03;;;;;;;23.47;46.63;102345.88;5024970;28;20455;-71
2023/10/01 02:31:34;;;;;;;9.65;2.50;;;;;;;24.10;45.43;102340.59;5010265;28;20144;-71
2023/10/01 02:34:01;;;;;;;5.10;2.65;;;;;;;23.69;46.44;102343.19;5009234;28;20071;-71
2023/10/01 02:36:26;;;;;;;11.00;2.60;;;;;;;23.25;46.90;102344.06;5026382;28;20033;-71
2023/10/01 02:38:53;;;;;;;9.75;2.95;;;;;;;23.84;45.69;102337.19;5029307;28;20099;-71
2023/10/01 02:41:25;;;;;;;8.77;3.38;;;;;;;23.32;46.97;102339.38;5030054;28;20033;-71
2023/10/01 02:43:52;;;;;;;9.50;2.70;;;;;;;22.58;48.64;102342.16;5009340;28;20348;-72
2023/10/01 02:46:26;;;;;;;12.13;2.60;;;;;;;22.58;48.69;102339.50;4991414;28;20033;-71
2023/10/01 02:48:59;;;;;;;8.20;2.60;;;;;;;22.33;49.24;102343.88;5009325;28;20485;-71
2023/10/01 02:51:37;;;;;;;6.00;2.13;;;;;;;22.72;48.76;102331.84;5008763;28;20052;-71
2023/10/01 02:54:08;;;;;;;10.43;2.70;;;;;;;24.04;45.20;102339.06;4991518;28;20073;-71
2023/10/01 02:56:52;;;;;;;8.18;2.95;;;;;;;23.18;47.22;102332.78;5009057;28;20393;-71
2023/10/01 02:59:19;;;;;;;7.03;2.58;;;;;;;23.14;47.72;102336.50;4992116;28;20042;-71
2023/10/01 03:01:48;;;;;;;7.88;2.63;;;;;;;23.88;46.44;102338.84;4992213;28;20034;-72
2023/10/01 03:04:16;;;;;;;10.13;3.10;;;;;;;24.07;45.53;102335.41;5023894;28;20353;-71
2023/10/01 03:06:57;;;;;;;5.82;2.00;;;;;;;23.77;46.39;102334.84;5003539;28;20026;-71
2023/10/01 03:09:33;;;;;;;9.30;2.60;;;;;;;22.95;47.93;102335.44;5022045;28;20105;-71
2023/10/01 03:15:00;;;;;;;5.65;2.17;;;;;;;23.47;46.78;102328.06;5009816;28;20560;-71
2023/10/01 03:17:27;;;;;;;11.50;2.92;;;;;;;23.57;46.57;102323.22;5004444;28;20034;-72
2023/10/01 03:19:53;;;;;;;10.70;2.78;;;;;;;22.98;48.00;102324.66;4971856;28;20022;-71
2023/10/01 03:22:31;;;;;;;6.05;2.65;;;;;;;23.61;47.20;102318.63;4989141;28;20032;-71
2023/10/01 03:24:58;;;;;;;9.40;2.90;;;;;;;23.37;47.02;102322.25;5001207;28;20065;-71
2023/10/01 03:27:27;;;;;;;7.57;2.85;;;;;;;23.38;47.31;102325.75;4998471;28;20026;-71
2023/10/01 03:30:00;;;;;;;6.90;2.42;;;;;;;23.50;47.25;102321.72;5023945;28;20070;-70
2023/10/01 03:32:28;;;;;;;9.98;2.60;;;;;;;24.50;45.14;102319.25;5008058;28;20410;-71
2023/10/01 03:34:54;;;;;;;9.75;3.00;;;;;;;23.32;47.36;102320.69;5007406;28;20368;-71
2023/10/01 03:37:22;;;;;;;12.23;2.83;;;;;;;23.52;46.90;102320.75;5007964;28;20440;-72
2023/10/01 03:39:52;;;;;;;6.60;2.80;;;;;;;23.91;46.56;102315.63;5013283;28;20028;-71
2023/10/01 03:42:17;;;;;;;11.70;3.10;;;;;;;23.04;48.93;102314.63;5028374;28;20026;-71
2023/10/01 03:45:18;;;;;;;7.53;2.58;;;;;;;23.02;48.93;102316.47;5012396;28;20034;-71
2023/10/01 03:47:43;;;;;;;8.10;2.88;;;;;;;22.78;48.89;102312.97;5010925;28;20034;-71
2023/10/01 03:50:09;;;;;;;11.93;2.88;;;;;;;22.88;48.78;102314.34;5027483;28;20032;-71
2023/10/01 03:52:40;;;;;;;7.90;2.72;;;;;;;23.60;47.45;102312.41;5013740;28;20025;-71
2023/10/01 04:00:31;;;;;;;11.02;4.20;;;;;;;24.45;45.40;102306.09;5011541;28;20121;-71
2023/10/01 04:02:56;;;;;;;12.43;3.40;;;;;;;23.11;48.53;102309.91;5026484;28;20088;-71
2023/10/01 04:05:22;;;;;;;9.13;2.67;;;;;;;22.93;49.25;102315.97;5011858;28;20041;-71
2023/10/01 04:07:51;;;;;;;7.53;2.60;;;;;;;23.11;48.86;102309.03;5028249;28;20072;-71
2023/10/01 04:12:54;;;;;;;8.05;2.58;;;;;;;23.92;46.82;102307.56;5012230;28;20096;-71
2023/10/01 04:15:27;;;;;;;7.63;2.50;;;;;;;23.14;49.15;102307.16;5027296;28;20033;-71
2023/10/01 04:23:33;;;;;;;10.30;2.95;;;;;;;22.37;50.63;102302.06;5015772;28;20414;-71
2023/10/01 04:26:06;;;;;;;6.05;2.30;;;;;;;23.20;49.11;102308.69;5032079;28;20029;-71
2023/10/01 04:28:36;;;;;;;8.38;2.95;;;;;;;22.83;49.79;102308.34;5030755;28;20052;-71
2023/10/01 04:31:08;;;;;;;7.13;2.85;;;;;;;22.90;49.79;102306.28;5009852;28;20033;-71
2023/10/01 04:33:34;;;;;;;7.43;3.17;;;;;;;22.90;49.74;102316.09;5019862;28;20025;-71
2023/10/01 04:36:01;;;;;;;9.65;2.40;;;;;;;22.25;51.01;102313.13;5030455;28;20029;-71
2023/10/01 04:38:32;;;;;;;6.75;2.50;;;;;;;23.13;49.09;102313.41;5031724;28;20029;-71
2023/10/01 04:41:03;;;;;;;7.93;2.75;;;;;;;22.93;49.76;102315.97;5013639;28;20045;-71
2023/10/01 04:43:34;;;;;;;10.82;4.07;;;;;;;22.42;52.10;102316.09;5014582;28;20374;-71
2023/10/01 04:46:08;;;;;;;6.40;2.70;;;;;;;22.70;50.42;102309.72;5030855;28;20029;-71
2023/10/01 04:48:36;;;;;;;8.93;2.33;;;;;;;23.00;50.34;102320.16;5032302;28;20033;-71
2023/10/01 04:51:03;;;;;;;7.13;3.17;;;;;;;22.92;50.70;102308.91;5011894;28;20115;-71
2023/10/01 04:53:28;;;;;;;9.10;2.92;;;;;;;23.07;50.08;102310.97;5026681;28;20029;-71
2023/10/01 04:56:00;;;;;;;15.25;2.67;;;;;;;21.70;53.65;102314.13;5021102;28;20026;-71
2023/10/01 04:58:26;;;;;;;12.80;3.15;;;;;;;22.45;52.04;102321.31;5029196;28;20108;-71
2023/10/01 05:00:54;;;;;;;13.90;3.20;;;;;;;22.92;51.29;102319.56;5031060;28;20080;-71
2023/10/01 05:03:36;;;;;;;9.02;3.65;;;;;;;23.44;49.93;102322.84;5021152;28;20022;-71
2023/10/01 05:06:02;;;;;;;8.43;2.42;;;;;;;22.84;50.19;102318.03;5010634;28;20030;-71
2023/10/01 05:08:38;;;;;;;7.10;3.10;;;;;;;23.15;50.28;102316.91;5027108;28;20390;-71
2023/10/01 05:11:13;;;;;;;6.70;3.08;;;;;;;23.11;50.22;102309.91;5022826;28;20018;-71
2023/10/01 05:13:47;;;;;;;8.45;3.78;;;;;;;22.18;52.21;102318.66;5026897;28;20029;-71
2023/10/01 05:16:13;;;;;;;10.18;3.00;;;;;;;23.81;48.76;102315.97;5027623;28;20029;-71
2023/10/01 05:18:42;;;;;;;5.40;2.47;;;;;;;23.29;49.66;102307.47;5011504;28;20021;-70
2023/10/01 05:21:12;;;;;;;7.80;3.75;;;;;;;23.74;49.01;102316.28;5010128;28;20485;-71
2023/10/01 05:23:45;;;;;;;8.68;3.08;;;;;;;24.33;46.92;102314.66;5012051;28;20133;-71
2023/10/01 05:26:11;;;;;;;13.57;3.38;;;;;;;24.21;47.24;102322.28;5027478;28;20025;-71
2023/10/01 05:28:41;;;;;;;7.70;2.90;;;;;;;23.62;48.33;102325.72;5030218;28;20113;-71
2023/10/01 05:31:14;;;;;;;7.72;2.97;;;;;;;23.44;49.17;102336.19;5029863;28;20502;-71
2023/10/01 05:33:46;;;;;;;10.52;3.30;;;;;;;23.10;49.67;102339.31;5011305;28;20527;-71
2023/10/01 05:36:16;;;;;;;7.87;2.47;;;;;;;23.68;48.57;102328.97;5011271;28;20052;-71
2023/10/01 05:38:44;;;;;;;10.38;2.90;;;;;;;23.17;49.58;102331.03;5012762;28;20122;-72
2023/10/01 05:41:13;;;;;;;8.77;3.13;;;;;;;23.35;49.42;102324.06;5011664;28;20745;-71
2023/10/01 05:43:43;;;;;;;11.48;4.25;;;;;;;22.82;50.20;102330.59;5009100;28;20025;-71
2023/10/01 05:46:10;;;;;;;9.82;3.08;;;;;;;23.10;49.77;102336.66;5010948;28;20036;-71
2023/10/01 05:48:37;;;;;;;9.13;2.80;;;;;;;23.09;50.04;102341.09;5018220;28;20480;-72
2023/10/01 05:51:04;;;;;;;7.70;3.17;;;;;;;;;;5024668;28;20021;-71
2023/10/01 05:53:30;;;;;;;6.50;3.33;;;;;;;23.24;49.94;102336.13;5026679;28;20028;-71
2023/10/01 05:56:05;;;;;;;10.95;3.83;;;;;;;23.07;50.02;102332.31;5008682;28;20398;-71
2023/10/01 05:58:30;;;;;;;10.60;4.20;;;;;;;22.18;52.28;102339.97;5027469;28;20029;-71
2023/10/01 06:01:05;;;;;;;8.27;3.15;;;;;;;22.90;50.75;102337.41;5026911;28;20029;-71
2023/10/01 06:03:32;;;;;;;9.90;3.45;;;;;;;22.81;51.37;102339.50;5028416;28;20215;-71
2023/10/01 06:05:58;;;;;;;16.02;3.83;;;;;;;23.28;50.62;102327.94;5007985;28;20389;-71
2023/10/01 06:08:32;;;;;;;13.70;3.08;;;;;;;22.74;50.67;102332.66;5011623;28;20022;-71
2023/10/01 06:10:59;;;;;;;12.18;3.28;;;;;;;23.16;50.33;102334.66;5026012;28;20053;-71
2023/10/01 06:13:28;;;;;;;9.65;3.28;;;;;;;23.88;48.13;102332.66;5028144;28;20026;-71
2023/10/01 06:15:57;;;;;;;11.07;3.60;;;;;;;22.76;50.72;102336.13;5027002;28;20088;-71
2023/10/01 06:18:24;;;;;;;6.65;2.97;;;;;;;23.24;49.39;102330.81;5027756;28;20048;-72
2023/10/01 06:20:50;;;;;;;10.02;3.95;;;;;;;23.09;49.48;102324.25;5012638;28;20504;-71
2023/10/01 06:23:25;;;;;;;7.78;3.00;;;;;;;22.29;51.67;102341.38;5011155;28;20581;-71
2023/10/01 06:25:53;;;;;;;10.50;4.05;;;;;;;22.02;52.41;102341.41;5023688;28;20033;-71
2023/10/01 06:28:23;;;;;;;15.77;3.53;;;;;;;22.74;50.51;102331.78;5010225;28;20032;-71
2023/10/01 06:30:49;;;;;;;10.68;4.20;;;;;;;23.64;48.13;102335.34;4992946;28;20026;-72
2023/10/01 06:33:29;;;;;;;10.43;3.40;;;;;;;23.42;48.82;102340.72;5028850;28;20032;-71
2023/10/01 06:38:39;;;;;;;7.43;3.50;;;;;;;22.28;52.55;102342.31;5029178;28;20059;-71
2023/10/01 06:41:06;;;;;;;9.93;3.90;;;;;;;23.13;50.08;102334.75;5006491;28;20501;-71
2023/10/01 06:43:44;;;;;;;11.75;3.42;;;;;;;23.38;48.75;102333.75;5017883;28;20036;-72
2023/10/01 06:46:11;;;;;;;7.65;3.38;;;;;;;22.74;51.16;102324.69;5023394;28;20030;-72
2023/10/01 06:48:39;;;;;;;8.88;4.00;;;;;;;22.87;50.77;102317.97;5026581;28;20090;-71
2023/10/01 06:51:06;;;;;;;13.75;4.18;;;;;;;22.53;52.09;102321.00;5021876;28;20485;-71
2023/10/01 06:53:45;;;;;;;15.43;3.83;;;;;;;22.27;52.97;102325.47;5028511;28;20025;-71
2023/10/01 06:56:14;;;;;;;9.70;3.50;;;;;;;22.73;51.85;102325.59;5008689;28;20336;-71
2023/10/01 06:58:41;;;;;;;9.85;4.00;;;;;;;23.60;49.54;102330.22;5024182;28;20025;-71
2023/10/01 07:01:33;;;;;;;8.82;4.00;;;;;;;22.06;53.32;102324.41;5026825;28;20068;-71
2023/10/01 07:03:51;;;;;;;11.50;3.97;;;;;;;22.81;51.45;102328.84;5027883;28;20037;-71
2023/10/01 07:06:17;;;;;;;9.93;3.10;;;;;;;22.71;52.12;102335.47;5027771;28;20104;-71
2023/10/01 07:08:43;;;;;;;9.85;3.13;;;;;;;21.92;54.47;102337.34;5026794;28;20548;-71
2023/10/01 07:11:11;;;;;;;6.15;2.97;;;;;;;21.17;56.54;102333.50;5028448;28;20056;-72
2023/10/01 07:13:40;;;;;;;14.20;5.28;;;;;;;22.76;52.96;102325.47;5009057;28;20084;-72
2023/10/01 07:16:08;;;;;;;13.38;4.03;;;;;;;23.59;50.22;102326.69;5010197;28;20032;-72
2023/10/01 07:18:37;;;;;;;12.75;4.03;;;;;;;22.77;52.81;102332.53;5009474;28;20017;-73
2023/10/01 07:21:16;;;;;;;7.97;3.92;;;;;;;22.86;52.38;102332.19;5005243;28;20164;-73
2023/10/01 07:23:42;;;;;;;13.00;3.95;;;;;;;22.64;52.97;102336.59;5024544;28;20083;-73
2023/10/01 07:26:12;;;;;;;11.75;4.28;;;;;;;22.33;53.78;102335.03;5010312;28;20021;-73
2023/10/01 07:28:41;;;;;;;12.60;3.95;;;;;;;23.21;51.71;102343.31;5027886;28;20025;-70
2023/10/01 07:31:07;;;;;;;8.35;4.45;;;;;;;22.56;53.58;102347.56;5008730;28;20029;-70
2023/10/01 07:33:33;;;;;;;14.10;4.47;;;;;;;22.74;52.73;102350.44;5025189;28;20501;-71
2023/10/01 07:35:59;;;;;;;10.00;3.97;;;;;;;23.51;51.11;102352.84;5026270;28;20489;-71
2023/10/01 07:38:52;;;;;;;9.73;3.95;;;;;;;24.04;49.10;102356.88;5006406;28;20037;-70
2023/10/01 07:41:20;;;;;;;11.75;4.07;;;;;;;24.77;47.81;102348.34;5002513;28;20033;-71
2023/10/01 07:43:46;;;;;;;8.25;3.40;;;;;;;25.67;45.88;102350.31;5009501;28;20056;-70
2023/10/01 07:46:15;;;;;;;14.70;4.57;;;;;;;24.53;48.20;102352.03;5010192;28;20033;-70
2023/10/01 07:48:47;;;;;;;10.25;3.92;;;;;;;24.62;48.29;102356.16;4995478;28;20025;-70
2023/10/01 07:51:35;;;;;;;11.80;4.35;;;;;;;23.46;50.73;102350.31;5025840;28;20033;-70
2023/10/01 07:54:03;;;;;;;8.35;4.43;;;;;;;24.13;49.86;102352.94;5027359;28;20033;-71
2023/10/01 07:56:28;;;;;;;11.15;3.50;;;;;;;24.30;49.11;102349.53;5026298;28;20342;-70
2023/10/01 07:58:57;;;;;;;15.23;4.63;;;;;;;24.58;49.37;102342.94;5022753;28;20057;-71
2023/10/01 08:01:42;;;;;;;16.30;4.57;;;;;;;24.21;49.67;102340.97;5022510;28;20029;-70
2023/10/01 08:04:38;;;;;;;12.30;4.53;;;;;;;24.65;48.61;102342.63;5009623;28;20425;-71
2023/10/01 08:06:56;;;;;;;12.93;4.40;;;;;;;25.35;47.31;102344.75;5025471;28;20564;-70
2023/10/01 08:09:21;;;;;;;11.35;4.18;;;;;;;25.18;47.70;102349.09;5027253;28;20183;-70
2023/10/01 08:12:05;;;;;;;8.48;3.92;;;;;;;25.47;47.20;102344.16;5028544;28;20078;-70
2023/10/01 08:14:34;;;;;;;12.68;4.55;;;;;;;24.69;48.76;102343.38;5024567;28;20121;-70
2023/10/01 08:17:03;;;;;;;12.93;3.95;;;;;;;23.82;50.54;102344.41;5009469;28;20453;-70
2023/10/01 08:19:44;;;;;;;12.75;4.03;;;;;;;24.95;48.57;102338.59;5010601;28;20555;-71
2023/10/01 08:22:22;;;;;;;13.13;3.83;;;;;;;25.82;46.56;102344.19;5025544;28;20028;-70
2023/10/01 08:24:49;;;;;;;6.80;3.35;;;;;;;26.69;44.78;102339.66;5027433;28;20053;-71
2023/10/01 08:27:29;;;;;;;11.77;3.97;;;;;;;26.76;43.86;102335.72;5015449;28;20044;-70
2023/10/01 08:32:49;;;;;;;7.85;3.28;;;;;;;26.60;44.61;102341.06;5029846;28;20413;-70
2023/10/01 08:35:23;;;;;;;21.08;3.85;;;;;;;26.58;44.60;102346.50;5009594;28;20391;-70
2023/10/01 08:37:49;;;;;;;13.40;4.03;;;;;;;26.45;44.37;102340.06;5029138;28;20037;-70
2023/10/01 08:40:17;;;;;;;8.95;3.80;;;;;;;26.21;44.88;102344.91;5012967;28;20398;-71
2023/10/01 08:42:44;;;;;;;9.93;3.50;;;;;;;26.60;45.07;102346.41;5026439;28;20053;-70
2023/10/01 08:45:12;;;;;;;10.20;3.55;;;;;;;25.67;46.46;102351.16;5010676;28;20038;-71
2023/10/01 08:47:38;;;;;;;9.10;3.33;;;;;;;26.84;44.61;102340.69;5026479;28;20056;-70
2023/10/01 08:50:27;;;;;;;19.70;4.50;;;;;;;26.48;45.09;102347.94;5013460;28;20429;-71
2023/10/01 08:53:09;;;;;;;10.70;4.05;;;;;;;26.23;45.61;102346.56;5006913;28;20018;-71
2023/10/01 08:55:39;;;;;;;11.00;4.47;;;;;;;26.69;44.74;102345.03;5012408;28;20030;-70
2023/10/01 08:58:15;;;;;;;18.13;5.15;;;;;;;25.87;45.86;102347.50;5030966;28;20087;-71
2023/10/01 09:01:10;;;;;;;11.02;4.32;;;;;;;25.71;46.66;102351.91;5031802;28;20029;-70
2023/10/01 09:03:36;;;;;;;10.60;4.13;;;;;;;26.78;44.93;102344.56;5014108;28;20059;-70
2023/10/01 09:06:03;;;;;;;11.95;4.22;;;;;;;26.62;45.14;102355.22;5011475;28;20052;-71
2023/10/01 09:08:45;;;;;;;9.38;3.55;;;;;;;26.44;45.25;102353.56;5025885;28;20099;-71
2023/10/01 09:11:16;;;;;;;10.48;3.97;;;;;;;26.85;44.96;102351.31;5006608;28;20043;-70
2023/10/01 09:16:42;;;;;;;11.63;3.70;;;;;;;26.54;46.18;102349.41;5011922;28;20048;-71
2023/10/01 09:21:55;;;;;;;13.40;4.05;;;;;;;27.60;43.58;102337.25;5027385;28;20036;-71
2023/10/01 09:24:38;;;;;;;10.27;4.00;;;;;;;26.32;45.97;102336.28;5009953;28;20129;-70
2023/10/01 09:27:21;;;;;;;11.48;3.65;;;;;;;27.01;45.26;102348.66;4996919;28;20030;-69
2023/10/01 09:29:56;;;;;;;11.10;4.32;;;;;;;26.78;45.60;102344.56;5027281;28;20523;-71
2023/10/01 09:32:54;;;;;;;12.43;3.80;;;;;;;27.29;44.63;102338.19;5009485;28;20029;-70
2023/10/01 09:35:39;;;;;;;12.50;4.00;;;;;;;26.26;46.03;102342.84;5012891;28;20374;-70
2023/10/01 09:38:12;;;;;;;8.30;3.50;;;;;;;26.96;45.14;102350.72;5009165;28;20036;-72
2023/10/01 09:40:42;;;;;;;9.15;3.67;;;;;;;28.14;43.52;102341.28;5023893;28;20490;-71
2023/10/01 09:43:18;;;;;;;12.95;4.05;;;;;;;27.39;44.21;102339.41;5028640;28;20029;-71
2023/10/01 09:45:49;;;;;;;7.88;3.42;;;;;;;26.73;45.58;102339.44;5012947;28;20041;-72
2023/10/01 09:48:29;;;;;;;15.65;4.13;;;;;;;26.64;46.31;102347.09;5026386;28;20519;-72
2023/10/01 09:51:18;;;;;;;13.13;3.63;;;;;;;27.75;44.10;102340.88;5002807;28;20401;-71
2023/10/01 09:53:53;;;;;;;9.63;4.10;;;;;;;27.61;44.00;102346.22;5027247;28;20037;-72
2023/10/01 09:56:27;;;;;;;16.05;4.07;;;;;;;27.98;43.68;102335.94;5025019;28;20032;-71
2023/10/01 09:59:01;;;;;;;12.25;3.75;;;;;;;28.65;42.32;102324.72;5016270;28;20224;-72
2023/10/01 10:01:32;;;;;;;11.85;4.43;;;;;;;27.26;44.25;102340.06;5027680;28;20044;-71
2023/10/01 10:03:59;;;;;;;12.93;3.45;;;;;;;26.74;45.44;102334.97;5029827;28;20035;-72
2023/10/01 10:06:25;;;;;;;9.55;2.97;;;;;;;28.36;42.54;102333.63;5010623;28;20030;-71
2023/10/01 10:09:03;;;;;;;11.57;3.80;;;;;;;27.04;44.50;102336.88;5026281;28;20029;-71
2023/10/01 10:11:40;;;;;;;8.75;3.15;;;;;;;27.06;44.63;102334.97;5024237;28;20032;-71
2023/10/01 10:14:27;;;;;;;9.52;3.72;;;;;;;28.90;42.34;102324.88;5028518;28;20033;-71
2023/10/01 10:16:57;;;;;;;10.35;3.08;;;;;;;28.23;43.10;102325.47;5007998;28;20118;-72
2023/10/01 10:19:22;;;;;;;10.90;3.35;;;;;;;27.87;43.91;102329.38;5027387;28;20033;-72
2023/10/01 10:24:32;;;;;;;10.10;3.08;;;;;;;27.95;43.32;102325.41;5027923;28;20064;-72
2023/10/01 10:27:15;;;;;;;11.48;3.70;;;;;;;28.04;42.76;102319.47;5015451;28;20044;-73
2023/10/01 10:29:46;;;;;;;8.95;3.72;;;;;;;28.82;42.35;102313.72;5022008;28;20057;-71
2023/10/01 10:32:24;;;;;;;13.88;4.15;;;;;;;28.72;42.77;102315.31;5022505;28;20037;-72
2023/10/01 10:35:04;;;;;;;8.15;2.97;;;;;;;29.27;41.35;102322.47;5011548;28;20535;-72
2023/10/01 10:42:58;;;;;;;13.32;3.92;;;;;;;27.57;44.38;102322.22;5026154;28;20033;-71
2023/10/01 10:45:26;;;;;;;8.32;2.80;;;;;;;29.07;41.64;102320.22;4991890;28;20512;-71
2023/10/01 10:48:03;;;;;;;13.38;4.18;;;;;;;27.99;43.04;102316.19;5001929;28;20037;-72
2023/10/01 10:50:53;;;;;;;14.85;3.95;;;;;;;27.99;43.25;102311.69;5026595;28;20025;-71
2023/10/01 10:53:25;;;;;;;11.82;3.95;;;;;;;27.58;43.69;102317.72;5011446;28;20440;-71
2023/10/01 10:56:02;;;;;;;9.23;3.25;;;;;;;28.95;41.96;102313.81;5011683;28;20033;-71
2023/10/01 10:58:42;;;;;;;10.35;3.85;;;;;;;29.19;41.26;102305.94;5010776;28;20051;-71
2023/10/01 11:01:15;;;;;;;10.60;4.90;;;;;;;28.60;42.16;102307.03;5028258;28;20025;-71
2023/10/01 11:03:47;;;;;;;15.75;4.07;;;;;;;28.90;42.37;102314.09;5011655;28;20404;-71
2023/10/01 11:06:15;;;;;;;11.63;3.40;;;;;;;28.81;41.01;102313.84;5009630;28;20087;-71
2023/10/01 11:08:51;;;;;;;9.93;3.20;;;;;;;29.71;40.14;102314.22;5026365;28;20041;-72
2023/10/01 11:11:28;;;;;;;9.82;3.50;;;;;;;30.19;38.58;102309.09;5027081;28;20044;-72
2023/10/01 11:14:00;;;;;;;8.00;2.97;;;;;;;28.46;42.24;102315.09;5028279;28;20393;-71
2023/10/01 11:16:33;;;;;;;10.85;3.33;;;;;;;28.81;41.27;102312.03;5010987;28;20021;-72
2023/10/01 11:19:12;;;;;;;8.73;3.03;;;;;;;28.76;41.67;102312.31;5026776;28;20057;-72
2023/10/01 11:21:58;;;;;;;10.70;3.65;;;;;;;28.97;41.51;102311.03;5027244;28;20383;-72
2023/10/01 11:24:42;;;;;;;12.43;3.92;;;;;;;29.49;40.67;102307.59;5025860;28;20199;-72
2023/10/01 11:27:19;;;;;;;9.27;3.45;;;;;;;28.24;42.22;102305.69;5024310;28;20045;-71
2023/10/01 11:30:12;;;;;;;10.00;3.67;;;;;;;28.32;42.77;102304.34;5023497;28;20029;-71
2023/10/01 11:35:40;;;;;;;11.30;3.80;;;;;;;29.98;40.42;102305.22;5009541;28;20089;-71
2023/10/01 11:38:12;;;;;;;10.13;3.35;;;;;;;29.18;41.50;102306.94;5005831;28;20065;-71
2023/10/01 11:43:32;;;;;;;11.10;3.42;;;;;;;28.65;42.30;102297.84;5021584;28;20095;-71
2023/10/01 11:46:21;;;;;;;9.77;3.45;;;;;;;29.15;41.39;102312.50;5023955;28;20033;-71
2023/10/01 11:49:06;;;;;;;8.73;3.25;;;;;;;29.88;40.20;102300.47;5028552;28;20026;-71
2023/10/01 11:51:45;;;;;;;9.50;3.13;;;;;;;30.06;40.13;102297.44;5022664;28;20152;-71
2023/10/01 11:54:13;;;;;;;15.15;3.28;;;;;;;30.20;40.09;102299.16;5008289;28;20033;-71
2023/10/01 11:56:42;;;;;;;10.63;3.15;;;;;;;30.20;40.08;102294.66;5027835;28;20477;-71
2023/10/01 11:59:11;;;;;;;12.02;3.70;;;;;;;29.31;40.56;102298.06;5009980;28;20137;-71
2023/10/01 12:01:47;;;;;;;9.18;3.67;;;;;;;29.39;41.26;102293.03;5010322;28;20033;-71
2023/10/01 12:04:21;;;;;;;15.45;3.97;;;;;;;29.46;41.18;102283.56;5026283;28;20032;-71
2023/10/01 12:06:48;;;;;;;15.38;3.85;;;;;;;30.18;40.23;102280.41;4995346;28;20037;-70
2023/10/01 12:09:14;;;;;;;10.98;3.28;;;;;;;31.05;38.43;102285.88;5010279;28;20033;-71
2023/10/01 12:11:39;;;;;;;10.85;3.45;;;;;;;31.14;38.70;102273.50;5022883;28;20037;-71
2023/10/01 12:14:17;;;;;;;6.93;2.83;;;;;;;29.46;39.72;102280.88;5030162;28;20080;-71
2023/10/01 12:16:43;;;;;;;13.63;3.90;;;;;;;29.24;40.96;102274.22;5030974;28;20057;-71
2023/10/01 12:19:24;;;;;;;12.70;3.83;;;;;;;29.77;39.45;102270.66;5013584;28;20052;-71
2023/10/01 12:22:05;;;;;;;11.00;3.35;;;;;;;29.85;39.03;102262.94;5031503;28;20057;-71
2023/10/01 12:24:40;;;;;;;13.13;3.58;;;;;;;31.63;37.42;102275.19;5013831;28;20041;-71